Gabriola, Canada
Current Conditions -  °F | °C
As of 9:00 PM on Wednesday 26 Nov 2014 (Local Time) from CYCD Reporting Station
Light Rain Light Rain  
Wind Chill: 54°   Ceiling: 3000
Heat Index: 54°   Visibility: 10mi
Dew Point: 50°   Wind: 7mph
Humidity: 88%   Direction: 180°S
Pressure: 29.75"   Gusts: NA
Location:  49.18°N, 123.85°W
Report Text: CYCD 270500Z 18006KT 130V220 10SM -RA FEW005 OVC030 12/10 A2975 RMK SF2SC6 LAST OBS/NEXT 271400 UTC SLP076
Loading
Personal Weather Stations






























Interactive Weather Map New forecast layout! Learn more

10-Day Weather Forecast

Advertisements
Track Severe Weather on mobile